Time;durP1;ratioP1;P1;durP2;ratioP2;P2;SDS_P1;SDS_P2;PMS_P1;PMS_P2;Temp;Humidity;BMP_temperature;BMP_pressure;BME280_temperature;BME280_humidity;BME280_pressure;Samples;Min_cycle;Max_cycle;Signal;HPM_P1;HPM_P2
2023/04/20 00:02:03;;;;;;;6.70;6.33;;;;;;;7.36;41.74;101604.22;5116614;28;20281;-69
2023/04/20 00:04:29;;;;;;;6.10;5.87;;;;;;;7.40;41.53;101605.81;5117167;28;20201;-69
2023/04/20 00:06:57;;;;;;;6.50;6.27;;;;;;;7.40;41.12;101606.69;5117189;28;20187;-70
2023/04/20 00:09:25;;;;;;;5.77;5.67;;;;;;;7.42;41.06;101588.84;5116564;28;20185;-70
2023/04/20 00:11:52;;;;;;;6.53;5.97;;;;;;;7.45;41.32;101583.34;5098243;28;20189;-70
2023/04/20 00:14:19;;;;;;;6.03;5.77;;;;;;;7.41;41.28;101576.41;5116370;28;20181;-69
2023/04/20 00:16:45;;;;;;;6.50;6.40;;;;;;;7.41;41.57;101576.41;5116414;28;20191;-70
2023/04/20 00:19:11;;;;;;;8.17;6.57;;;;;;;7.42;42.17;101570.19;5116389;28;20185;-70
2023/04/20 00:21:38;;;;;;;6.37;6.07;;;;;;;7.37;42.31;101566.81;5116630;28;20196;-70
2023/04/20 00:24:05;;;;;;;8.00;5.83;;;;;;;7.33;42.25;101572.38;5116849;28;20205;-70
2023/04/20 00:26:33;;;;;;;6.37;5.87;;;;;;;7.34;41.52;101560.78;5116144;28;20284;-70
2023/04/20 00:29:00;;;;;;;6.30;6.20;;;;;;;7.23;41.55;101555.91;5097943;28;20612;-70
2023/04/20 00:31:26;;;;;;;5.87;5.77;;;;;;;7.22;41.64;101556.88;5097915;28;20193;-70
2023/04/20 00:33:53;;;;;;;5.23;5.03;;;;;;;7.26;41.33;101550.47;5116365;28;20189;-70
2023/04/20 00:36:19;;;;;;;5.20;5.00;;;;;;;7.22;41.82;101549.72;5115990;28;20209;-70
2023/04/20 00:38:45;;;;;;;5.93;5.30;;;;;;;7.23;41.71;101550.59;5116021;28;20264;-70
2023/04/20 00:41:12;;;;;;;6.40;5.40;;;;;;;7.17;41.49;101543.75;5097695;28;20292;-70
2023/04/20 00:43:56;;;;;;;6.13;5.70;;;;;;;7.17;42.08;101538.41;5116177;28;20280;-70
2023/04/20 00:46:23;;;;;;;6.00;5.83;;;;;;;7.23;41.40;101526.63;5097531;28;20215;-70
2023/04/20 00:48:51;;;;;;;6.37;6.10;;;;;;;7.20;41.23;101524.94;5097747;28;20228;-70
2023/04/20 00:51:20;;;;;;;5.80;5.50;;;;;;;7.16;42.36;101528.72;5116046;28;20213;-70
2023/04/20 00:53:46;;;;;;;5.70;5.50;;;;;;;7.26;41.08;101513.19;5115993;28;20559;-70
2023/04/20 00:56:14;;;;;;;6.53;6.03;;;;;;;7.24;42.36;101507.06;5097033;28;20205;-70
2023/04/20 00:58:41;;;;;;;5.83;5.53;;;;;;;7.22;43.20;101507.09;5115640;28;20250;-70
2023/04/20 01:01:09;;;;;;;5.90;5.70;;;;;;;7.18;43.13;101508.19;5097368;28;20284;-70
2023/04/20 01:03:38;;;;;;;6.20;5.90;;;;;;;7.18;42.31;101491.34;5115519;28;20213;-70
2023/04/20 01:06:06;;;;;;;5.40;5.23;;;;;;;7.21;42.40;101486.75;5114847;28;20237;-70
2023/04/20 01:08:32;;;;;;;6.77;6.53;;;;;;;7.19;41.95;101479.75;5115702;28;20189;-70
2023/04/20 01:11:02;;;;;;;6.20;5.60;;;;;;;7.24;42.40;101478.59;5097186;28;20189;-70
2023/04/20 01:13:29;;;;;;;6.00;5.83;;;;;;;7.24;43.03;101477.75;5115363;28;20177;-70
2023/04/20 01:15:59;;;;;;;7.50;5.60;;;;;;;7.30;42.51;101481.91;5080425;28;20209;-69
2023/04/20 01:18:25;;;;;;;7.03;6.47;;;;;;;7.22;43.34;101476.94;5115528;28;20188;-69
2023/04/20 01:20:52;;;;;;;6.40;6.20;;;;;;;7.13;43.37;101472.03;5115519;28;20617;-69
2023/04/20 01:23:19;;;;;;;6.80;6.50;;;;;;;7.10;43.68;101470.38;5096878;28;20301;-69
2023/04/20 01:25:45;;;;;;;5.37;5.17;;;;;;;7.14;43.90;101468.44;5097074;28;20647;-69
2023/04/20 01:28:13;;;;;;;6.43;5.90;;;;;;;7.13;43.94;101470.22;5097568;28;20193;-70
2023/04/20 01:30:39;;;;;;;5.80;5.70;;;;;;;7.14;44.34;101471.13;5115257;28;20184;-70
2023/04/20 01:33:06;;;;;;;5.40;5.23;;;;;;;7.14;44.94;101463.13;5096665;28;20655;-70
2023/04/20 01:35:32;;;;;;;5.60;5.50;;;;;;;7.24;44.67;101449.28;5114834;28;20295;-69
2023/04/20 01:38:00;;;;;;;5.53;5.33;;;;;;;7.19;46.02;101443.31;5096628;28;20216;-69
2023/04/20 01:40:26;;;;;;;5.07;4.63;;;;;;;7.16;45.64;101446.13;5115060;28;20188;-69
2023/04/20 01:42:53;;;;;;;5.90;5.43;;;;;;;7.28;45.14;101427.84;5096470;28;20208;-69
2023/04/20 01:45:21;;;;;;;6.47;5.97;;;;;;;7.28;45.60;101425.16;5096641;28;20217;-69
2023/04/20 01:47:47;;;;;;;5.43;5.13;;;;;;;7.24;45.43;101420.00;5114646;28;20185;-70
2023/04/20 01:50:14;;;;;;;5.80;5.60;;;;;;;7.24;45.36;101420.00;5115196;28;20235;-70
2023/04/20 01:52:40;;;;;;;5.37;5.10;;;;;;;7.28;45.94;101412.75;5114850;28;20181;-70
2023/04/20 01:55:10;;;;;;;7.00;6.47;;;;;;;7.32;46.11;101414.28;5114895;28;20739;-70
2023/04/20 01:57:36;;;;;;;7.13;5.57;;;;;;;7.23;45.96;101404.97;5096226;28;20191;-70
2023/04/20 02:00:03;;;;;;;6.60;6.13;;;;;;;7.22;47.05;101402.34;5096260;28;20213;-70
2023/04/20 02:02:39;;;;;;;5.30;5.20;;;;;;;7.26;46.85;101401.28;5114372;28;20575;-70
2023/04/20 02:05:06;;;;;;;5.83;5.43;;;;;;;7.26;46.17;101395.97;5096348;28;20309;-70
2023/04/20 02:07:33;;;;;;;5.60;5.30;;;;;;;7.24;46.75;101389.81;5095261;28;20189;-70
2023/04/20 02:09:59;;;;;;;6.23;5.90;;;;;;;7.21;46.84;101390.84;5115174;28;20635;-70
2023/04/20 02:12:26;;;;;;;4.77;4.67;;;;;;;7.20;47.16;101391.75;5096261;28;20648;-70
2023/04/20 02:14:52;;;;;;;6.00;5.60;;;;;;;7.21;46.57;101385.50;5114321;28;20254;-70
2023/04/20 02:17:20;;;;;;;6.07;5.87;;;;;;;7.27;46.38;101384.34;5096995;28;20193;-70
2023/04/20 02:19:46;;;;;;;6.57;6.00;;;;;;;7.22;46.60;101384.56;5114156;28;20185;-70
2023/04/20 02:22:13;;;;;;;5.47;5.37;;;;;;;7.19;47.23;101382.06;5095808;28;20280;-70
2023/04/20 02:24:40;;;;;;;6.17;5.83;;;;;;;7.27;46.39;101379.03;5095668;28;20586;-70
2023/04/20 02:27:06;;;;;;;5.87;5.57;;;;;;;7.31;47.19;101380.59;5095605;28;20624;-70
2023/04/20 02:29:33;;;;;;;6.60;6.20;;;;;;;7.30;47.03;101375.34;5079008;28;20189;-70
2023/04/20 02:31:59;;;;;;;5.63;5.43;;;;;;;7.32;47.24;101379.66;5114491;28;20682;-70
2023/04/20 02:34:25;;;;;;;5.63;5.50;;;;;;;7.28;47.42;101370.09;5113937;28;20177;-70
2023/04/20 02:36:55;;;;;;;5.67;5.57;;;;;;;7.26;47.57;101376.44;5095628;28;20197;-70
2023/04/20 02:39:21;;;;;;;5.57;5.47;;;;;;;7.26;48.19;101368.47;5113811;28;20272;-70
2023/04/20 02:41:48;;;;;;;5.80;5.50;;;;;;;7.25;48.99;101367.56;5114123;28;20265;-70
2023/04/20 02:44:15;;;;;;;6.13;5.87;;;;;;;7.22;48.95;101363.25;5096240;28;20256;-70
2023/04/20 02:46:41;;;;;;;5.77;5.47;;;;;;;7.22;49.05;101365.06;5095565;28;20280;-70
2023/04/20 02:49:08;;;;;;;6.53;6.10;;;;;;;7.24;49.30;101358.72;5095561;28;20220;-70
2023/04/20 02:51:39;;;;;;;5.77;5.57;;;;;;;7.19;49.44;101357.22;5095747;28;20188;-70
2023/04/20 02:54:05;;;;;;;8.27;5.37;;;;;;;7.20;49.79;101354.47;5112476;28;20209;-70
2023/04/20 02:56:31;;;;;;;6.70;6.27;;;;;;;7.17;50.29;101356.44;5096171;28;20227;-70
2023/04/20 02:59:03;;;;;;;6.63;6.17;;;;;;;7.18;50.88;101356.38;5095456;28;20658;-70
2023/04/20 03:01:56;;;;;;;6.57;6.33;;;;;;;7.12;51.02;101350.47;5110367;28;20216;-70
2023/04/20 03:04:25;;;;;;;7.17;6.60;;;;;;;7.17;51.23;101354.63;5095251;28;20316;-70
2023/04/20 03:07:02;;;;;;;6.43;6.03;;;;;;;7.21;51.45;101344.69;5095382;28;20192;-70
2023/04/20 03:09:32;;;;;;;5.93;5.83;;;;;;;7.20;51.51;101338.47;5112576;28;20188;-70
2023/04/20 03:12:17;;;;;;;7.70;6.87;;;;;;;7.17;52.44;101337.78;5113884;28;20540;-70
2023/04/20 03:15:16;;;;;;;7.90;7.23;;;;;;;7.22;53.21;101338.41;5095146;28;20220;-70
2023/04/20 03:17:57;;;;;;;6.90;6.57;;;;;;;7.26;53.05;101333.81;5096454;28;20187;-70
2023/04/20 03:20:23;;;;;;;6.93;6.77;;;;;;;7.23;54.77;101334.81;5099313;28;20234;-70
2023/04/20 03:22:50;;;;;;;7.83;7.43;;;;;;;7.21;54.92;101324.25;5082355;28;20193;-70
2023/04/20 03:25:19;;;;;;;11.70;8.23;;;;;;;7.28;55.61;101329.25;5099098;28;20572;-69
2023/04/20 03:27:59;;;;;;;7.57;6.93;;;;;;;7.25;56.05;101327.59;5099076;28;20606;-69
2023/04/20 03:30:26;;;;;;;8.43;7.80;;;;;;;7.24;56.23;101324.09;5117358;28;20234;-69
2023/04/20 03:33:00;;;;;;;8.87;8.00;;;;;;;7.28;56.28;101324.81;5099616;28;20184;-69
2023/04/20 03:35:27;;;;;;;8.13;7.43;;;;;;;7.33;56.86;101322.78;5099392;28;20300;-69
2023/04/20 03:37:53;;;;;;;8.73;8.30;;;;;;;7.42;56.71;101322.34;5098924;28;20571;-69
2023/04/20 03:40:20;;;;;;;8.27;7.70;;;;;;;7.40;56.92;101318.03;5098931;28;20196;-69
2023/04/20 03:42:46;;;;;;;8.07;7.40;;;;;;;7.33;57.82;101317.47;5098849;28;20231;-69
2023/04/20 03:45:13;;;;;;;7.93;7.63;;;;;;;7.33;57.11;101317.47;5117287;28;20300;-69
2023/04/20 03:47:40;;;;;;;8.33;7.53;;;;;;;7.32;57.67;101321.03;5098613;28;20234;-69
2023/04/20 03:50:07;;;;;;;7.60;7.40;;;;;;;7.33;57.66;101316.59;5117238;28;20247;-70
2023/04/20 03:52:34;;;;;;;8.57;7.80;;;;;;;7.41;56.75;101320.59;5099738;28;20235;-70
2023/04/20 03:55:04;;;;;;;12.00;8.93;;;;;;;7.42;57.25;101308.13;5098526;28;20326;-69
2023/04/20 03:57:32;;;;;;;8.73;8.00;;;;;;;7.37;57.47;101303.03;5116533;28;20193;-69
2023/04/20 04:00:00;;;;;;;8.43;7.93;;;;;;;7.37;57.22;101305.69;5115523;28;20657;-70
2023/04/20 04:02:33;;;;;;;8.40;7.90;;;;;;;7.32;57.53;101309.53;5116771;28;20239;-70
2023/04/20 04:05:02;;;;;;;7.70;7.40;;;;;;;7.39;57.33;101298.50;5117352;28;20554;-70
2023/04/20 04:07:28;;;;;;;8.33;7.90;;;;;;;7.32;56.92;101293.53;5115359;28;20280;-69
2023/04/20 04:09:55;;;;;;;9.03;8.43;;;;;;;7.34;57.22;101295.19;5098348;28;20221;-69
2023/04/20 04:12:21;;;;;;;7.17;6.97;;;;;;;7.32;57.55;101286.41;5098294;28;20254;-69
2023/04/20 04:14:49;;;;;;;8.50;7.83;;;;;;;7.35;57.14;101290.72;5098402;28;20683;-70
2023/04/20 04:17:17;;;;;;;9.40;7.00;;;;;;;7.27;57.54;101291.09;5098727;28;20193;-70
2023/04/20 04:19:44;;;;;;;8.53;8.10;;;;;;;7.26;57.51;101281.41;5098108;28;20225;-70
2023/04/20 04:22:10;;;;;;;7.53;7.30;;;;;;;7.30;58.07;101285.63;5098101;28;20234;-70
2023/04/20 04:24:47;;;;;;;8.17;7.37;;;;;;;7.26;58.44;101280.53;5098244;28;20217;-70
2023/04/20 04:27:17;;;;;;;8.17;6.93;;;;;;;7.23;58.59;101286.84;5097913;28;20197;-70
2023/04/20 04:29:51;;;;;;;7.83;7.30;;;;;;;7.26;58.21;101289.38;5114240;28;20279;-70
2023/04/20 04:32:19;;;;;;;7.57;7.27;;;;;;;7.20;58.56;101292.34;5097782;28;20200;-70
2023/04/20 04:34:47;;;;;;;7.10;6.90;;;;;;;7.21;59.12;101291.41;5097713;28;20201;-69
2023/04/20 04:37:13;;;;;;;7.83;6.93;;;;;;;7.26;59.29;101292.06;5097824;28;20185;-70
2023/04/20 04:39:46;;;;;;;7.73;7.53;;;;;;;7.18;59.84;101295.09;5097669;28;20701;-70
2023/04/20 04:42:19;;;;;;;8.20;7.60;;;;;;;7.09;59.74;101295.53;5098565;28;20201;-69
2023/04/20 04:44:45;;;;;;;8.07;7.57;;;;;;;7.08;59.96;101296.47;5097457;28;20217;-69
2023/04/20 04:47:20;;;;;;;7.73;7.20;;;;;;;7.15;59.83;101297.03;5097868;28;20242;-70
2023/04/20 04:49:47;;;;;;;7.80;7.43;;;;;;;7.10;60.23;101296.41;5115888;28;20189;-69
2023/04/20 04:52:14;;;;;;;7.77;7.40;;;;;;;7.05;60.75;101296.63;5097784;28;20678;-70
2023/04/20 04:54:40;;;;;;;7.97;7.57;;;;;;;7.08;61.16;101301.78;5115691;28;20209;-69
2023/04/20 04:57:06;;;;;;;7.70;7.23;;;;;;;7.02;61.48;101302.94;5115856;28;20185;-69
2023/04/20 04:59:33;;;;;;;11.30;7.60;;;;;;;7.08;61.73;101304.44;5116174;28;20185;-69
2023/04/20 05:01:59;;;;;;;7.47;7.13;;;;;;;7.09;61.61;101297.31;5115599;28;20189;-69
2023/04/20 05:04:26;;;;;;;7.77;7.37;;;;;;;6.96;62.03;101299.72;5115618;28;20566;-70
2023/04/20 05:06:52;;;;;;;7.27;7.07;;;;;;;7.07;62.55;101301.88;5097197;28;20574;-70
2023/04/20 05:09:19;;;;;;;9.03;8.27;;;;;;;7.09;62.34;101303.53;5115421;28;20195;-69
2023/04/20 05:11:45;;;;;;;8.30;7.80;;;;;;;7.01;62.38;101301.22;5115396;28;20215;-69
2023/04/20 05:14:12;;;;;;;7.73;7.33;;;;;;;7.07;62.98;101294.75;5115576;28;20178;-70
2023/04/20 05:16:38;;;;;;;16.90;7.63;;;;;;;7.03;63.45;101301.16;5115407;28;20186;-69
2023/04/20 05:19:05;;;;;;;13.87;8.17;;;;;;;6.91;63.62;101304.41;5116023;28;20191;-69
2023/04/20 05:21:31;;;;;;;8.17;7.63;;;;;;;6.82;64.04;101303.00;5115489;28;20185;-69
2023/04/20 05:23:58;;;;;;;8.83;8.43;;;;;;;6.76;64.64;101306.84;5115176;28;20219;-69
2023/04/20 05:26:24;;;;;;;8.53;7.87;;;;;;;6.72;64.72;101299.91;5114971;28;20213;-69
2023/04/20 05:28:51;;;;;;;9.20;8.20;;;;;;;6.68;65.23;101309.00;5115049;28;20284;-69
2023/04/20 05:31:17;;;;;;;7.80;7.60;;;;;;;6.67;65.77;101304.59;5115239;28;20185;-69
2023/04/20 05:33:43;;;;;;;8.00;7.47;;;;;;;6.73;65.79;101303.47;5115108;28;20182;-69
2023/04/20 05:36:10;;;;;;;8.53;7.97;;;;;;;6.72;65.86;101307.06;5114888;28;20575;-69
2023/04/20 05:38:36;;;;;;;8.53;7.20;;;;;;;6.64;66.44;101302.09;5114925;28;20185;-69
2023/04/20 05:41:03;;;;;;;9.10;8.80;;;;;;;6.71;67.02;101306.19;5114841;28;20192;-70
2023/04/20 05:43:30;;;;;;;8.33;7.93;;;;;;;6.76;66.95;101308.66;5114496;28;20232;-70
2023/04/20 05:45:56;;;;;;;7.47;6.87;;;;;;;6.80;67.05;101304.91;5114803;28;20291;-69
2023/04/20 05:48:23;;;;;;;8.87;8.27;;;;;;;6.77;66.98;101299.72;5114561;28;20209;-69
2023/04/20 05:50:49;;;;;;;8.33;8.03;;;;;;;6.76;66.97;101306.84;5114629;28;20192;-69
2023/04/20 05:53:15;;;;;;;21.50;7.53;;;;;;;6.81;67.28;101310.16;5114508;28;20186;-69
2023/04/20 05:55:42;;;;;;;8.00;7.40;;;;;;;6.79;67.34;101309.34;5114795;28;20212;-69
2023/04/20 05:58:08;;;;;;;8.23;7.73;;;;;;;6.75;67.31;101310.44;5114765;28;20198;-69
2023/04/20 06:00:35;;;;;;;13.90;8.43;;;;;;;6.73;67.44;101306.13;5114414;28;20189;-69
2023/04/20 06:03:02;;;;;;;7.43;7.13;;;;;;;6.74;67.75;101308.72;5114607;28;20189;-70
2023/04/20 06:05:29;;;;;;;9.17;8.30;;;;;;;6.81;67.77;101309.28;5114222;28;20221;-69
2023/04/20 06:07:55;;;;;;;8.00;7.60;;;;;;;6.76;68.04;101317.50;5114466;28;20192;-69
2023/04/20 06:10:21;;;;;;;8.40;7.93;;;;;;;6.73;68.70;101312.31;5114470;28;20189;-69
2023/04/20 06:12:48;;;;;;;9.93;9.07;;;;;;;6.71;69.66;101311.50;5114470;28;20276;-69
2023/04/20 06:15:15;;;;;;;10.07;7.90;;;;;;;6.60;69.99;101312.00;5114084;28;20540;-70
2023/04/20 06:17:41;;;;;;;17.07;8.57;;;;;;;6.67;70.49;101317.91;5114071;28;20272;-69
2023/04/20 06:20:10;;;;;;;9.03;8.47;;;;;;;6.58;70.74;101316.56;5114351;28;20177;-69
2023/04/20 06:22:44;;;;;;;8.70;8.20;;;;;;;6.48;71.14;101320.53;5114303;28;20280;-69
2023/04/20 06:25:11;;;;;;;9.57;9.17;;;;;;;6.39;71.91;101332.47;5114191;28;20209;-68
2023/04/20 06:27:38;;;;;;;9.63;9.00;;;;;;;6.22;73.17;101328.81;5114047;28;20223;-69
2023/04/20 06:30:05;;;;;;;9.43;9.03;;;;;;;6.12;74.59;101323.91;5114225;28;20194;-66
2023/04/20 06:32:31;;;;;;;10.13;9.33;;;;;;;6.09;75.60;101329.38;5114436;28;20279;-65
2023/04/20 06:34:58;;;;;;;12.97;9.30;;;;;;;6.01;76.21;101322.63;5114327;28;20207;-67
2023/04/20 06:37:25;;;;;;;10.90;8.73;;;;;;;6.08;76.57;101326.75;5114311;28;20274;-66
2023/04/20 06:39:54;;;;;;;10.63;8.90;;;;;;;6.13;75.89;101316.78;5114123;28;20193;-66
2023/04/20 06:42:21;;;;;;;9.90;9.03;;;;;;;6.17;76.33;101318.38;5114121;28;20550;-66
2023/04/20 06:44:48;;;;;;;9.13;8.57;;;;;;;6.14;76.58;101313.22;5095410;28;20367;-66
2023/04/20 06:47:14;;;;;;;10.77;8.40;;;;;;;6.16;76.56;101316.66;5114233;28;20189;-66
2023/04/20 06:49:42;;;;;;;10.23;9.13;;;;;;;6.09;77.07;101315.22;5113667;28;20196;-66
2023/04/20 06:52:08;;;;;;;8.90;8.20;;;;;;;6.09;77.04;101317.88;5113548;28;20185;-66
2023/04/20 06:54:34;;;;;;;10.13;9.27;;;;;;;6.19;77.35;101313.88;5113529;28;20280;-67
2023/04/20 06:57:01;;;;;;;10.27;9.47;;;;;;;6.12;77.47;101312.41;5114253;28;20275;-67
2023/04/20 06:59:27;;;;;;;9.23;8.67;;;;;;;6.11;76.79;101316.00;5113581;28;20280;-66
2023/04/20 07:01:53;;;;;;;10.33;9.47;;;;;;;6.06;76.95;101307.38;5113604;28;20190;-66
2023/04/20 07:04:20;;;;;;;10.10;9.30;;;;;;;6.11;76.53;101311.56;5113441;28;20209;-67
2023/04/20 07:06:48;;;;;;;10.27;9.37;;;;;;;6.21;76.28;101306.69;5113527;28;20651;-66
2023/04/20 07:09:18;;;;;;;10.20;9.40;;;;;;;6.23;75.66;101302.16;5113462;28;20558;-66
2023/04/20 07:11:44;;;;;;;9.67;9.00;;;;;;;6.25;75.08;101310.06;5113462;28;20195;-66
2023/04/20 07:14:11;;;;;;;15.30;9.57;;;;;;;6.27;74.95;101308.19;5113351;28;20193;-68
2023/04/20 07:16:37;;;;;;;10.63;9.87;;;;;;;6.39;74.70;101303.22;5113689;28;20188;-66
2023/04/20 07:19:04;;;;;;;9.37;8.77;;;;;;;6.49;74.04;101300.13;5113358;28;20229;-66
2023/04/20 07:21:31;;;;;;;9.07;8.57;;;;;;;6.53;73.68;101299.03;5113379;28;20656;-66
2023/04/20 07:23:57;;;;;;;9.67;8.97;;;;;;;6.62;73.87;101308.41;5095116;28;20232;-66
2023/04/20 07:26:24;;;;;;;10.03;9.10;;;;;;;6.74;73.21;101310.50;5113794;28;20215;-66
2023/04/20 07:28:51;;;;;;;9.27;8.77;;;;;;;6.82;72.96;101308.34;5113595;28;20648;-66
2023/04/20 07:31:17;;;;;;;9.67;8.93;;;;;;;6.89;71.84;101303.59;5113910;28;20180;-66
2023/04/20 07:33:44;;;;;;;9.20;8.40;;;;;;;6.91;71.82;101301.72;5095849;28;20193;-66
2023/04/20 07:36:10;;;;;;;9.90;9.13;;;;;;;6.86;71.70;101303.75;5113277;28;20284;-66
2023/04/20 07:38:36;;;;;;;9.27;8.67;;;;;;;6.90;71.77;101294.69;5113244;28;20705;-66
2023/04/20 07:41:03;;;;;;;9.63;9.03;;;;;;;6.91;71.29;101296.41;5113167;28;20193;-66
2023/04/20 07:43:29;;;;;;;8.83;8.33;;;;;;;6.92;70.74;101291.03;5113681;28;20270;-66
2023/04/20 07:45:55;;;;;;;9.27;8.70;;;;;;;6.81;71.09;101294.16;5113300;28;20213;-66
2023/04/20 07:48:22;;;;;;;8.67;8.03;;;;;;;6.95;71.68;101303.31;5094852;28;20755;-66
2023/04/20 07:50:48;;;;;;;10.07;9.27;;;;;;;6.93;71.37;101292.72;5113524;28;20187;-66
2023/04/20 07:53:14;;;;;;;10.60;9.30;;;;;;;7.00;71.07;101295.97;5113543;28;20181;-66
2023/04/20 07:55:41;;;;;;;9.57;8.83;;;;;;;6.97;70.75;101297.00;5113080;28;20207;-66
2023/04/20 07:58:07;;;;;;;8.87;8.50;;;;;;;7.05;71.13;101299.28;5113090;28;20181;-65
2023/04/20 08:00:34;;;;;;;9.37;8.97;;;;;;;7.16;70.58;101290.75;5112923;28;20191;-66
2023/04/20 08:03:00;;;;;;;8.50;8.17;;;;;;;7.22;69.59;101291.31;5112990;28;20192;-66
2023/04/20 08:05:27;;;;;;;9.33;8.67;;;;;;;7.24;70.24;101289.44;5114836;28;20224;-67
2023/04/20 08:07:54;;;;;;;8.87;8.30;;;;;;;7.34;69.36;101289.00;5116686;28;20193;-66
2023/04/20 08:10:20;;;;;;;8.87;8.37;;;;;;;7.33;68.43;101285.50;5117093;28;20181;-66
2023/04/20 08:12:47;;;;;;;9.13;8.43;;;;;;;7.24;69.09;101284.13;5116550;28;20673;-66
2023/04/20 08:15:18;;;;;;;9.23;8.83;;;;;;;7.22;69.01;101286.00;5116427;28;20777;-66
2023/04/20 08:17:44;;;;;;;9.23;8.43;;;;;;;7.17;69.12;101277.38;5116473;28;20543;-66
2023/04/20 08:20:11;;;;;;;9.80;9.13;;;;;;;7.32;69.15;101280.22;5117029;28;20573;-66
2023/04/20 08:22:38;;;;;;;9.37;8.77;;;;;;;7.19;69.39;101269.31;5116695;28;20625;-66
2023/04/20 08:25:05;;;;;;;8.67;8.27;;;;;;;7.14;69.75;101274.88;5116173;28;20228;-67
2023/04/20 08:27:31;;;;;;;10.73;9.67;;;;;;;7.23;69.07;101270.88;5097783;28;20221;-66
2023/04/20 08:29:57;;;;;;;10.23;9.63;;;;;;;7.25;69.18;101271.66;5116295;28;20185;-66
2023/04/20 08:32:25;;;;;;;9.60;8.93;;;;;;;7.38;69.03;101262.13;5116765;28;20185;-66
2023/04/20 08:34:52;;;;;;;10.43;9.83;;;;;;;7.18;69.32;101267.56;5116042;28;20207;-66
2023/04/20 08:37:19;;;;;;;10.77;9.93;;;;;;;7.18;69.76;101270.25;5116330;28;20185;-66
2023/04/20 08:39:45;;;;;;;11.00;10.30;;;;;;;7.25;70.16;101266.34;5097788;28;20208;-66
2023/04/20 08:42:12;;;;;;;11.10;10.33;;;;;;;7.29;69.30;101267.91;5116586;28;20189;-66
2023/04/20 08:44:38;;;;;;;10.70;10.10;;;;;;;7.18;69.86;101265.81;5116075;28;20705;-66
2023/04/20 08:47:05;;;;;;;9.87;8.93;;;;;;;7.28;69.38;101263.53;5115918;28;20185;-66
2023/04/20 08:49:31;;;;;;;10.03;9.43;;;;;;;7.32;68.96;101267.75;5115830;28;20196;-66
2023/04/20 08:51:58;;;;;;;10.77;9.80;;;;;;;7.26;69.63;101260.09;5115865;28;20182;-66
2023/04/20 08:54:24;;;;;;;13.47;9.77;;;;;;;7.24;69.82;101262.81;5115941;28;20654;-66
2023/04/20 08:56:51;;;;;;;11.07;9.93;;;;;;;7.23;69.23;101260.22;5116303;28;20542;-66
2023/04/20 08:59:17;;;;;;;10.83;10.17;;;;;;;7.23;69.50;101252.22;5115925;28;20181;-66
2023/04/20 09:01:44;;;;;;;11.70;10.80;;;;;;;7.14;69.82;101264.22;5115632;28;20222;-66
2023/04/20 09:04:15;;;;;;;10.47;9.70;;;;;;;7.18;69.55;101257.81;5115939;28;20250;-67
2023/04/20 09:06:49;;;;;;;11.53;10.53;;;;;;;7.28;69.14;101257.31;5115577;28;20185;-66
2023/04/20 09:09:16;;;;;;;10.77;9.77;;;;;;;7.25;69.21;101261.00;5115819;28;20178;-66
2023/04/20 09:11:43;;;;;;;11.60;10.80;;;;;;;7.29;70.47;101261.72;5115701;28;20191;-66
2023/04/20 09:14:12;;;;;;;10.97;10.27;;;;;;;7.06;71.76;101263.69;5115282;28;20272;-66
2023/04/20 09:16:55;;;;;;;11.57;10.70;;;;;;;6.91;74.66;101261.78;5114831;28;20185;-66
2023/04/20 09:19:23;;;;;;;13.43;12.13;;;;;;;6.82;76.04;101261.31;5115630;28;20195;-66
2023/04/20 09:21:52;;;;;;;11.63;10.73;;;;;;;6.74;76.70;101266.13;5115530;28;20192;-66
2023/04/20 09:24:19;;;;;;;13.63;12.33;;;;;;;6.56;77.23;101270.50;5115005;28;20208;-66
2023/04/20 09:26:46;;;;;;;13.50;12.50;;;;;;;6.58;77.15;101268.66;5114936;28;20203;-66
2023/04/20 09:29:21;;;;;;;13.80;12.50;;;;;;;6.54;76.66;101267.06;5115333;28;20230;-66
2023/04/20 09:31:48;;;;;;;14.43;13.23;;;;;;;6.63;77.50;101268.41;5097041;28;20212;-66
2023/04/20 09:34:15;;;;;;;15.87;12.67;;;;;;;6.84;76.72;101271.88;5115195;28;20181;-66
2023/04/20 09:36:45;;;;;;;13.23;12.03;;;;;;;7.03;75.58;101278.03;5115273;28;20181;-66
2023/04/20 09:39:16;;;;;;;11.30;10.23;;;;;;;7.15;74.71;101268.59;5114882;28;20195;-66
2023/04/20 09:41:43;;;;;;;10.27;9.77;;;;;;;7.16;73.56;101281.00;5115389;28;20185;-66
2023/04/20 09:44:11;;;;;;;9.47;8.97;;;;;;;7.23;71.94;101270.88;5114679;28;20278;-67
2023/04/20 09:46:39;;;;;;;9.63;9.23;;;;;;;7.28;71.81;101271.53;5114730;28;20185;-66
2023/04/20 09:49:08;;;;;;;9.23;8.77;;;;;;;7.42;72.84;101276.16;5114690;28;20647;-66
2023/04/20 09:51:37;;;;;;;8.97;8.43;;;;;;;7.54;71.31;101264.03;5115179;28;20193;-67
2023/04/20 09:54:05;;;;;;;8.13;7.73;;;;;;;7.64;71.81;101267.97;5114562;28;20279;-66
2023/04/20 09:56:33;;;;;;;8.50;8.10;;;;;;;7.75;70.58;101262.06;5114748;28;20195;-66
2023/04/20 09:59:00;;;;;;;8.13;7.83;;;;;;;7.80;70.07;101266.22;5096093;28;20292;-65
2023/04/20 10:01:33;;;;;;;9.00;8.43;;;;;;;7.95;71.23;101258.34;5114422;28;20189;-66
2023/04/20 10:04:02;;;;;;;8.70;8.20;;;;;;;7.98;70.37;101256.41;5114943;28;20175;-66
2023/04/20 10:06:31;;;;;;;9.60;9.07;;;;;;;8.29;70.37;101250.31;5114109;28;20689;-66
2023/04/20 10:09:00;;;;;;;9.70;9.10;;;;;;;8.36;69.35;101248.19;5114608;28;20674;-66
2023/04/20 10:11:29;;;;;;;9.97;9.40;;;;;;;8.44;69.03;101247.78;5114257;28;20294;-66
2023/04/20 10:14:23;;;;;;;11.07;10.37;;;;;;;8.17;68.41;101242.97;5114202;28;20214;-66
2023/04/20 10:17:02;;;;;;;10.93;10.23;;;;;;;8.06;69.25;101243.53;5114535;28;20178;-65
2023/04/20 10:19:43;;;;;;;9.87;9.47;;;;;;;8.21;70.54;101239.19;5114704;28;20566;-67
2023/04/20 10:22:11;;;;;;;12.33;11.53;;;;;;;8.26;69.82;101241.59;5114518;28;20253;-66
2023/04/20 10:24:39;;;;;;;12.53;11.80;;;;;;;8.22;69.18;101238.25;5114335;28;20292;-66
2023/04/20 10:27:19;;;;;;;12.43;11.53;;;;;;;8.26;67.89;101236.25;5113362;28;20268;-66
2023/04/20 10:29:46;;;;;;;14.07;12.67;;;;;;;8.27;67.10;101238.00;5114307;28;20599;-66
2023/04/20 10:32:27;;;;;;;14.03;12.87;;;;;;;8.28;67.59;101234.38;5114012;28;20590;-66
2023/04/20 10:35:05;;;;;;;13.97;12.87;;;;;;;8.42;67.28;101233.66;5113733;28;20204;-67
2023/04/20 10:37:32;;;;;;;13.87;12.87;;;;;;;8.58;66.94;101231.00;5114478;28;20256;-67
2023/04/20 10:40:00;;;;;;;13.77;12.77;;;;;;;8.51;67.17;101230.50;5114671;28;20198;-66
2023/04/20 10:42:28;;;;;;;14.17;13.10;;;;;;;8.65;66.62;101225.25;5114315;28;20663;-66
2023/04/20 10:44:54;;;;;;;14.53;13.37;;;;;;;8.68;67.15;101227.72;5113868;28;20673;-66
2023/04/20 10:47:29;;;;;;;14.43;13.03;;;;;;;8.57;67.77;101229.28;5113787;28;20193;-66
2023/04/20 10:50:12;;;;;;;14.93;13.80;;;;;;;8.43;68.03;101230.91;5113773;28;20183;-66
2023/04/20 10:52:40;;;;;;;12.60;11.70;;;;;;;8.72;67.78;101233.78;5114208;28;20268;-66
2023/04/20 10:55:21;;;;;;;10.77;10.17;;;;;;;8.80;66.05;101231.53;5095861;28;20296;-67
2023/04/20 10:57:49;;;;;;;10.60;9.77;;;;;;;8.84;64.97;101233.09;5113557;28;20246;-66
2023/04/20 11:00:21;;;;;;;9.60;9.00;;;;;;;8.78;64.20;101232.56;5113527;28;20181;-66
2023/04/20 11:02:58;;;;;;;10.07;9.50;;;;;;;8.87;63.18;101227.56;5113965;28;20563;-66
2023/04/20 11:05:26;;;;;;;9.73;9.23;;;;;;;8.72;63.49;101234.63;5095218;28;20707;-66
2023/04/20 11:07:54;;;;;;;9.70;9.27;;;;;;;8.76;64.18;101219.28;5095308;28;20200;-66
2023/04/20 11:10:23;;;;;;;10.57;9.77;;;;;;;8.87;64.45;101224.88;5113437;28;20263;-66
2023/04/20 11:12:50;;;;;;;9.20;8.80;;;;;;;8.90;64.17;101208.69;5113809;28;20184;-66
2023/04/20 11:15:17;;;;;;;7.80;7.60;;;;;;;8.91;62.72;101213.09;5113336;28;20203;-66
2023/04/20 11:17:45;;;;;;;7.17;6.97;;;;;;;8.91;61.79;101222.94;5113956;28;20760;-66
2023/04/20 11:20:15;;;;;;;8.37;8.07;;;;;;;8.91;62.50;101218.44;5113750;28;20553;-66
2023/04/20 11:22:43;;;;;;;11.03;7.37;;;;;;;9.08;60.91;101211.28;5113737;28;20514;-66
2023/04/20 11:25:11;;;;;;;8.10;7.90;;;;;;;9.09;61.41;101196.94;5113225;28;20235;-66
2023/04/20 11:27:38;;;;;;;9.03;8.53;;;;;;;9.44;62.02;101200.22;5113295;28;20204;-66
2023/04/20 11:30:08;;;;;;;7.60;7.40;;;;;;;9.77;61.00;101196.47;5113962;28;20284;-67
2023/04/20 11:32:35;;;;;;;8.10;7.80;;;;;;;9.86;58.70;101190.53;5113544;28;20681;-66
2023/04/20 11:35:06;;;;;;;7.40;7.20;;;;;;;9.74;57.32;101183.28;5113437;28;20262;-65